Grand Rapids, MI (49501)

12:20 PM EST on January 24, 2017 (GMT -0500)
West Grand | | Change Station
Active Advisory: Flood Advisory

Elev 650 ft 42.98 °N, 85.69 °W | Updated 6 minutes ago

Overcast
Overcast
39.2 °F
Feels Like 37 °F
N
3.2
Wind Variable Wind from NW

Today
High -- | Low -- °F
--% Chance of Precip.
Yesterday
High -- | Low -- °F
Precip. -- in
Pressure 29.85 in
Visibility 10.0 miles
Clouds Overcast 1000 ft
Windchill 37 °F
Dew Point 36 °F
Humidity 88%
Rainfall 0.00 in
Snow Depth Not available.
8:04 AM 5:45 PM
Waning Crescent, 11% visible
METAR KGRR 241653Z 32009KT 10SM OVC010 03/01 A2983 RMK AO2 SLP106 T00330011 $
Pressure 29.85 in
Visibility 10.0 miles
Clouds Overcast 1000 ft
Windchill 37 °F
Dew Point 36 °F
Humidity 88%
Rainfall 0.00 in
Snow Depth Not available.
8:04 AM 5:45 PM
Waning Crescent, 11% visible
METAR KGRR 241653Z 32009KT 10SM OVC010 03/01 A2983 RMK AO2 SLP106 T00330011 $

Get Your Daily Forecast Email!

Thanks for signing up!

Be on the lookout for a verification email in your inbox.

You'll start receiving the daily forecast at 8 AM.

×

10-Day Weather Forecast

Almanac

Astronomy

Jan. 24, 2017 Rise Set
Actual Time
Civil Twilight
Nautical Twilight
Astronomical Twilight
Moon
Length of Visible Light
Length of Day
Tomorrow will be .
, % of the Moon is Illuminated

Today's Extremes

State Highs State Lows

Community

WunderPhotos

Upload Photos

1,962,540 photos uploaded!

WunderBlog® & News

Nearby

Air Quality

  Air Quality AQ Index Pollutant
Not available.

Snow Depth

Station Depth Elevation

Earthquake Activity

City Distance Mag. Time & Date
Minimum magnitude displayed is 2.5.

Coastal Water Temperatures

Place Temperature

Stations

Nearby Weather Stations

Station Location Temp. Windchill Dew Point Humidity Wind Precip. Elev Updated Type
                   

Watches & Warnings

Flood Advisory
Issued: 10:54 AM EST Jan. 24, 2017 – National Weather Service

The Flood Advisory is extended for
the Grand River at Lowell
* until Monday evening.
* There is not current observed data.
* Bankfull stage is 10.0 feet.
* Flood stage is 15.0 feet.
* Forecast, the river will rise to near 10.4 feet early Friday
morning.
* Impact, at 10.0 feet... river is bankfull. Expect flooding of low
lying areas adjacent to the banks.


Lat... Lon 4289 8548 4289 8534 4290 8521 4297 8524
      4296 8534 4298 8541